Time;durP1;ratioP1;P1;durP2;ratioP2;P2;SDS_P1;SDS_P2;PMS_P1;PMS_P2;Temp;Humidity;BMP_temperature;BMP_pressure;BME280_temperature;BME280_humidity;BME280_pressure;Samples;Min_cycle;Max_cycle;Signal;HPM_P1;HPM_P2
2024/01/06 00:00:57;;;;;;;1999.90;999.90;;;7.00;99.90;;;;;;5035710;28;20188;-73
2024/01/06 00:03:23;;;;;;;1999.90;999.90;;;7.00;99.90;;;;;;5035901;28;20168;-73
2024/01/06 00:05:48;;;;;;;1999.90;999.90;;;7.10;99.90;;;;;;5036479;28;20193;-73
2024/01/06 00:08:14;;;;;;;1999.90;999.90;;;7.40;99.90;;;;;;5035595;28;20199;-72
2024/01/06 00:10:39;;;;;;;1999.90;999.90;;;7.10;99.90;;;;;;5035881;28;20590;-73
2024/01/06 00:13:05;;;;;;;1999.90;999.90;;;7.00;99.90;;;;;;5034519;28;20251;-73
2024/01/06 00:15:30;;;;;;;1999.90;999.90;;;6.70;99.90;;;;;;5035266;28;20173;-72
2024/01/06 00:17:56;;;;;;;1999.90;999.90;;;7.20;99.90;;;;;;5035731;28;20226;-72
2024/01/06 00:20:22;;;;;;;1999.90;999.90;;;7.50;99.90;;;;;;5035077;28;20199;-73
2024/01/06 00:22:47;;;;;;;1999.90;999.90;;;7.00;99.90;;;;;;5034759;28;20540;-73
2024/01/06 00:25:13;;;;;;;1999.90;999.90;;;7.00;99.90;;;;;;5035054;28;20537;-73
2024/01/06 00:27:39;;;;;;;1999.90;999.90;;;7.00;99.90;;;;;;5034447;28;20217;-73
2024/01/06 00:30:05;;;;;;;1999.90;999.90;;;7.00;99.90;;;;;;5036591;28;20437;-73
2024/01/06 00:32:30;;;;;;;1999.90;999.90;;;7.20;99.90;;;;;;5034707;28;20218;-73
2024/01/06 00:34:56;;;;;;;1999.90;999.90;;;7.20;99.90;;;;;;5034222;28;20407;-73
2024/01/06 00:37:22;;;;;;;1999.90;999.90;;;6.70;99.90;;;;;;5034308;28;20179;-72
2024/01/06 00:39:47;;;;;;;1999.90;999.90;;;7.00;99.90;;;;;;5034347;28;20203;-73
2024/01/06 00:42:13;;;;;;;1999.90;999.90;;;7.00;99.90;;;;;;5034442;28;20191;-73
2024/01/06 00:44:38;;;;;;;1999.90;999.90;;;7.00;99.90;;;;;;5034092;28;20180;-73
2024/01/06 00:47:04;;;;;;;1999.90;999.90;;;6.70;99.90;;;;;;5034073;28;20172;-73
2024/01/06 00:49:30;;;;;;;1999.90;999.90;;;7.10;99.90;;;;;;5032765;28;20272;-73
2024/01/06 00:51:55;;;;;;;1999.90;999.90;;;7.10;99.90;;;;;;5034069;28;20167;-73
2024/01/06 00:54:21;;;;;;;1999.90;999.90;;;7.10;99.90;;;;;;5033719;28;20577;-72
2024/01/06 00:56:46;;;;;;;1999.90;999.90;;;7.10;99.90;;;;;;5034126;28;20173;-72
2024/01/06 00:59:12;;;;;;;1999.90;999.90;;;7.00;99.90;;;;;;5034114;28;20168;-73
2024/01/06 01:01:37;;;;;;;1999.90;999.90;;;7.00;99.90;;;;;;5034799;28;20169;-73
2024/01/06 01:04:03;;;;;;;1999.90;999.90;;;7.00;99.90;;;;;;5034173;28;20339;-73
2024/01/06 01:06:29;;;;;;;1999.90;999.90;;;7.00;99.90;;;;;;5034794;28;20171;-73
2024/01/06 01:08:55;;;;;;;1999.90;999.90;;;7.10;99.90;;;;;;5034459;28;20418;-73
2024/01/06 01:11:20;;;;;;;1999.90;999.90;;;7.00;99.90;;;;;;5034194;28;20204;-73
2024/01/06 01:13:46;;;;;;;1999.90;999.90;;;7.00;99.90;;;;;;5033840;28;20255;-73
2024/01/06 01:16:11;;;;;;;1999.90;999.90;;;7.00;99.90;;;;;;5034606;28;20168;-72
2024/01/06 01:18:37;;;;;;;1999.90;999.90;;;6.80;99.90;;;;;;5034473;28;20674;-73
2024/01/06 01:21:03;;;;;;;1999.90;999.90;;;7.10;99.90;;;;;;5033389;28;20193;-73
2024/01/06 01:23:28;;;;;;;1999.90;999.90;;;7.10;99.90;;;;;;5034296;28;20616;-73
2024/01/06 01:25:54;;;;;;;1999.90;999.90;;;7.20;99.90;;;;;;5034600;28;20200;-73
2024/01/06 01:28:20;;;;;;;1999.90;999.90;;;7.20;99.90;;;;;;5034249;28;20515;-73
2024/01/06 01:30:46;;;;;;;1999.90;999.90;;;6.80;99.90;;;;;;5034492;28;20438;-73
2024/01/06 01:33:11;;;;;;;1999.90;999.90;;;7.20;99.90;;;;;;5034558;28;20168;-73
2024/01/06 01:35:38;;;;;;;1999.90;999.90;;;7.20;99.90;;;;;;5035653;28;20258;-73
2024/01/06 01:38:04;;;;;;;1999.90;999.90;;;7.30;99.90;;;;;;5034604;28;20411;-73
2024/01/06 01:40:29;;;;;;;1999.90;999.90;;;7.20;99.90;;;;;;5034406;28;20200;-72
2024/01/06 01:42:55;;;;;;;1999.90;999.90;;;7.10;99.90;;;;;;5034016;28;20187;-72
2024/01/06 01:45:20;;;;;;;1999.90;999.90;;;7.20;99.90;;;;;;5033788;28;20231;-72
2024/01/06 01:47:46;;;;;;;1999.90;999.90;;;7.30;99.90;;;;;;5034634;28;20168;-72
2024/01/06 01:50:13;;;;;;;1999.90;999.90;;;7.20;99.90;;;;;;5033478;28;20188;-73
2024/01/06 01:52:42;;;;;;;1999.90;999.90;;;7.30;99.90;;;;;;5032497;28;20267;-72
2024/01/06 01:55:08;;;;;;;1999.90;999.90;;;7.30;99.90;;;;;;5034864;28;20414;-73
2024/01/06 01:57:34;;;;;;;1999.90;999.90;;;7.30;99.90;;;;;;5034676;28;21057;-72
2024/01/06 02:00:01;;;;;;;1999.90;999.90;;;7.30;99.90;;;;;;5033920;28;20444;-72
2024/01/06 02:02:28;;;;;;;1999.90;999.90;;;7.20;99.90;;;;;;5033457;28;20670;-71
2024/01/06 02:04:54;;;;;;;1999.90;999.90;;;7.40;99.90;;;;;;5033857;28;20450;-72
2024/01/06 02:07:20;;;;;;;1999.90;999.90;;;7.20;99.90;;;;;;5034103;28;20412;-72
2024/01/06 02:09:46;;;;;;;1999.90;999.90;;;7.20;99.90;;;;;;5034468;28;20443;-72
2024/01/06 02:12:11;;;;;;;1999.90;999.90;;;7.30;99.90;;;;;;5033704;28;20570;-73
2024/01/06 02:14:37;;;;;;;1999.90;999.90;;;7.70;99.90;;;;;;5034823;28;20176;-72
2024/01/06 02:17:03;;;;;;;1999.90;999.90;;;7.30;99.90;;;;;;5034911;28;20235;-73
2024/01/06 02:19:28;;;;;;;1999.90;999.90;;;7.30;99.90;;;;;;5033364;28;20190;-72
2024/01/06 02:21:54;;;;;;;1999.90;999.90;;;7.30;99.90;;;;;;5033685;28;20173;-73
2024/01/06 02:24:20;;;;;;;1999.90;999.90;;;7.40;99.90;;;;;;5033754;28;20199;-72
2024/01/06 02:26:46;;;;;;;1999.90;999.90;;;7.40;99.90;;;;;;5034438;28;21189;-73
2024/01/06 02:29:11;;;;;;;1999.90;999.90;;;7.40;99.90;;;;;;5032841;28;20412;-72
2024/01/06 02:31:37;;;;;;;1999.90;999.90;;;7.40;99.90;;;;;;5032238;28;20172;-72
2024/01/06 02:34:02;;;;;;;1999.90;999.90;;;7.30;99.90;;;;;;5030739;28;20196;-73
2024/01/06 02:36:28;;;;;;;1999.90;999.90;;;7.50;99.90;;;;;;5032470;28;20538;-73
2024/01/06 02:38:54;;;;;;;1999.90;999.90;;;7.50;99.90;;;;;;5032125;28;20173;-73
2024/01/06 02:41:19;;;;;;;1999.90;999.90;;;7.50;99.90;;;;;;5032786;28;20679;-72
2024/01/06 02:43:45;;;;;;;1999.90;999.90;;;7.50;99.90;;;;;;5032636;28;20299;-72
2024/01/06 02:46:10;;;;;;;1999.90;999.90;;;7.50;99.90;;;;;;5033024;28;20572;-72
2024/01/06 02:48:36;;;;;;;1999.90;999.90;;;7.60;99.90;;;;;;5032753;28;20199;-73
2024/01/06 02:51:02;;;;;;;1999.90;999.90;;;7.50;99.90;;;;;;5032913;28;20188;-72
2024/01/06 02:53:27;;;;;;;1999.90;999.90;;;7.50;99.90;;;;;;5032114;28;20577;-72
2024/01/06 02:55:53;;;;;;;1999.90;999.90;;;7.50;99.90;;;;;;5031604;28;20267;-73
2024/01/06 02:58:18;;;;;;;1999.90;999.90;;;7.70;99.90;;;;;;5033687;28;20620;-73
2024/01/06 03:00:44;;;;;;;1999.90;999.90;;;7.40;99.90;;;;;;5033546;28;20199;-72
2024/01/06 03:03:09;;;;;;;1999.90;999.90;;;7.40;99.90;;;;;;5033239;28;20652;-72
2024/01/06 03:05:36;;;;;;;1999.90;999.90;;;7.10;99.90;;;;;;5034242;28;20203;-73
2024/01/06 03:08:02;;;;;;;1999.90;999.90;;;7.30;99.90;;;;;;5034198;28;20161;-73
2024/01/06 03:10:28;;;;;;;1999.90;999.90;;;7.50;99.90;;;;;;5032011;28;21023;-72
2024/01/06 03:12:54;;;;;;;1999.90;999.90;;;7.50;99.90;;;;;;5033853;28;20407;-73
2024/01/06 03:15:19;;;;;;;1999.90;999.90;;;7.50;99.90;;;;;;5036872;28;20171;-73
2024/01/06 03:17:45;;;;;;;1999.90;999.90;;;7.60;99.90;;;;;;5036938;28;20650;-72
2024/01/06 03:20:11;;;;;;;1999.90;999.90;;;7.50;99.90;;;;;;5036360;28;20196;-72
2024/01/06 03:22:38;;;;;;;1999.90;999.90;;;7.80;99.90;;;;;;5036295;28;20558;-73
2024/01/06 03:25:04;;;;;;;1999.90;999.90;;;7.80;99.90;;;;;;5037318;28;20199;-73
2024/01/06 03:27:29;;;;;;;1999.90;999.90;;;7.60;99.90;;;;;;5036518;28;20415;-73
2024/01/06 03:29:55;;;;;;;1999.90;999.90;;;8.10;99.90;;;;;;5036390;28;20840;-72
2024/01/06 03:32:21;;;;;;;1999.90;999.90;;;;;;;;;;5037077;28;20638;-72
2024/01/06 03:34:47;;;;;;;1999.90;999.90;;;8.20;99.90;;;;;;5036651;28;20199;-73
2024/01/06 03:37:12;;;;;;;1999.90;999.90;;;7.50;99.90;;;;;;5035555;28;20423;-72
2024/01/06 03:39:38;;;;;;;1999.90;999.90;;;7.10;99.90;;;;;;5036506;28;20243;-72
2024/01/06 03:42:04;;;;;;;1999.90;999.90;;;7.60;99.90;;;;;;5036548;28;20180;-73
2024/01/06 03:44:30;;;;;;;1999.90;999.90;;;7.40;99.90;;;;;;5036757;28;20564;-73
2024/01/06 03:46:59;;;;;;;1999.90;999.90;;;7.60;99.90;;;;;;5036041;28;20419;-72
2024/01/06 03:49:25;;;;;;;1999.90;999.90;;;7.50;99.90;;;;;;5035493;28;20509;-73
2024/01/06 03:51:51;;;;;;;1999.90;999.90;;;7.60;99.90;;;;;;5035953;28;20922;-73
2024/01/06 03:54:17;;;;;;;1999.90;999.90;;;7.30;99.90;;;;;;5034787;28;20431;-73
2024/01/06 03:56:42;;;;;;;1999.90;999.90;;;7.50;99.90;;;;;;5035773;28;20407;-73
2024/01/06 03:59:09;;;;;;;1999.90;999.90;;;7.50;99.90;;;;;;5035357;28;20172;-73
2024/01/06 04:01:35;;;;;;;1999.90;999.90;;;7.50;99.90;;;;;;5035378;28;20698;-73
2024/01/06 04:04:04;;;;;;;1999.90;999.90;;;7.40;99.90;;;;;;5035595;28;20490;-73
2024/01/06 04:06:33;;;;;;;1999.90;999.90;;;7.40;99.90;;;;;;5035530;28;20414;-73
2024/01/06 04:08:59;;;;;;;1999.90;999.90;;;7.40;99.90;;;;;;5035693;28;20498;-73
2024/01/06 04:11:25;;;;;;;1999.90;999.90;;;7.40;99.90;;;;;;5034962;28;20422;-73
2024/01/06 04:13:50;;;;;;;1999.90;999.90;;;7.50;99.90;;;;;;5035305;28;20766;-73
2024/01/06 04:16:16;;;;;;;1999.90;999.90;;;7.40;99.90;;;;;;5035175;28;20259;-73
2024/01/06 04:18:41;;;;;;;1999.90;999.90;;;7.40;99.90;;;;;;5034910;28;20693;-73
2024/01/06 04:21:08;;;;;;;1999.90;999.90;;;7.60;99.90;;;;;;5034908;28;20268;-73
2024/01/06 04:23:34;;;;;;;1999.90;999.90;;;7.30;99.90;;;;;;5074315;22;20599;-72
2024/01/06 04:26:01;;;;;;;1999.90;999.90;;;7.30;99.90;;;;;;5033637;28;20466;-73
2024/01/06 04:28:27;;;;;;;1999.90;999.90;;;7.30;99.90;;;;;;5034243;28;20175;-73
2024/01/06 04:30:53;;;;;;;1999.90;999.90;;;7.20;99.90;;;;;;5034182;28;20803;-73
2024/01/06 04:33:18;;;;;;;1999.90;999.90;;;7.20;99.90;;;;;;5033975;28;20428;-73
2024/01/06 04:35:44;;;;;;;1999.90;999.90;;;7.10;99.90;;;;;;5034050;28;20591;-73
2024/01/06 04:38:09;;;;;;;1999.90;999.90;;;7.10;99.90;;;;;;5033959;28;20172;-73
2024/01/06 04:40:35;;;;;;;1999.90;999.90;;;7.10;99.90;;;;;;5034083;28;20176;-72
2024/01/06 04:43:01;;;;;;;1999.90;999.90;;;7.00;99.90;;;;;;5033499;28;20208;-73
2024/01/06 04:45:26;;;;;;;1999.90;999.90;;;6.90;99.90;;;;;;5033812;28;20211;-73
2024/01/06 04:47:52;;;;;;;1999.90;999.90;;;6.90;99.90;;;;;;5033782;28;20175;-73
2024/01/06 04:50:18;;;;;;;1999.90;999.90;;;6.90;99.90;;;;;;5033919;28;20165;-73
2024/01/06 04:52:43;;;;;;;1999.90;999.90;;;6.80;99.90;;;;;;5033431;28;20784;-73
2024/01/06 04:55:09;;;;;;;1999.90;999.90;;;6.60;99.90;;;;;;5033654;28;20176;-73
2024/01/06 04:57:36;;;;;;;1999.90;999.90;;;6.70;99.90;;;;;;5033660;28;20181;-73
2024/01/06 05:00:02;;;;;;;1999.90;999.90;;;6.60;99.90;;;;;;5033495;28;20184;-72
2024/01/06 05:02:28;;;;;;;1999.90;999.90;;;6.50;99.90;;;;;;5033271;28;20938;-72
2024/01/06 05:04:53;;;;;;;1999.90;999.90;;;6.50;99.90;;;;;;5033367;28;20460;-73
2024/01/06 05:07:19;;;;;;;1999.90;999.90;;;6.40;99.90;;;;;;5033421;28;20207;-72
2024/01/06 05:09:44;;;;;;;1999.90;999.90;;;6.40;99.90;;;;;;5033544;28;20200;-73
2024/01/06 05:12:10;;;;;;;1999.90;999.90;;;6.40;99.90;;;;;;5033271;28;20689;-73
2024/01/06 05:14:36;;;;;;;1999.90;999.90;;;6.40;99.90;;;;;;5033088;28;20250;-73
2024/01/06 05:17:01;;;;;;;1999.90;999.90;;;6.40;99.90;;;;;;5033180;28;20248;-73
2024/01/06 05:19:27;;;;;;;1999.90;999.90;;;;;;;;;;5033389;28;20552;-74
2024/01/06 05:21:53;;;;;;;1999.90;999.90;;;6.70;99.90;;;;;;5032898;28;20176;-73
2024/01/06 05:24:19;;;;;;;1999.90;999.90;;;6.50;99.90;;;;;;5032875;28;20528;-73
2024/01/06 05:26:44;;;;;;;1999.90;999.90;;;6.50;99.90;;;;;;5033129;28;20255;-73
2024/01/06 05:29:10;;;;;;;1999.90;999.90;;;6.40;99.90;;;;;;5028233;28;21033;-72
2024/01/06 05:31:36;;;;;;;1999.90;999.90;;;6.60;99.90;;;;;;5009197;28;20177;-74
2024/01/06 05:34:01;;;;;;;1999.90;999.90;;;6.40;99.90;;;;;;5013039;28;20648;-73
2024/01/06 05:36:27;;;;;;;1999.90;999.90;;;6.50;99.90;;;;;;5012701;28;20168;-73
2024/01/06 05:38:53;;;;;;;1999.90;999.90;;;6.50;99.90;;;;;;5013334;28;20168;-73
2024/01/06 05:41:18;;;;;;;1999.90;999.90;;;6.50;99.90;;;;;;5013390;28;20262;-73
2024/01/06 05:43:44;;;;;;;1999.90;999.90;;;6.50;99.90;;;;;;5012832;28;20211;-73
2024/01/06 05:46:10;;;;;;;1999.90;999.90;;;6.50;99.90;;;;;;5013161;28;20169;-73
2024/01/06 05:48:36;;;;;;;1999.90;999.90;;;6.40;99.90;;;;;;5013212;28;20656;-73
2024/01/06 05:51:04;;;;;;;1999.90;999.90;;;6.50;99.90;;;;;;5013106;28;20448;-73
2024/01/06 05:53:31;;;;;;;1999.90;999.90;;;6.40;99.90;;;;;;5012730;28;20977;-73
2024/01/06 05:55:56;;;;;;;1999.90;999.90;;;6.40;99.90;;;;;;5013052;28;20404;-73
2024/01/06 05:58:22;;;;;;;1999.90;999.90;;;6.30;99.90;;;;;;5013366;28;20879;-73
2024/01/06 06:00:48;;;;;;;1999.90;999.90;;;6.10;99.90;;;;;;5013179;28;20196;-73
2024/01/06 06:03:13;;;;;;;1999.90;999.90;;;6.30;99.90;;;;;;5012691;28;20204;-73
2024/01/06 06:05:39;;;;;;;1999.90;999.90;;;6.20;99.90;;;;;;5012717;28;20455;-74
2024/01/06 06:08:05;;;;;;;1999.90;999.90;;;6.10;99.90;;;;;;5012946;28;20169;-73
2024/01/06 06:10:40;;;;;;;1999.90;999.90;;;6.00;99.90;;;;;;5012809;28;20644;-72
2024/01/06 06:13:07;;;;;;;1999.90;999.90;;;5.90;99.90;;;;;;5012687;28;20608;-72
2024/01/06 06:15:32;;;;;;;1999.90;999.90;;;5.80;99.90;;;;;;5012857;28;20412;-72
2024/01/06 06:18:00;;;;;;;1999.90;999.90;;;5.80;99.90;;;;;;5012801;28;20945;-72
2024/01/06 06:20:26;;;;;;;1999.90;999.90;;;7.10;99.90;;;;;;5012614;28;20175;-72
2024/01/06 06:22:51;;;;;;;1999.90;999.90;;;5.70;99.90;;;;;;5012145;28;20447;-72
2024/01/06 06:25:17;;;;;;;1999.90;999.90;;;5.70;99.90;;;;;;5012421;28;20771;-72
2024/01/06 06:27:42;;;;;;;1999.90;999.90;;;6.80;99.90;;;;;;5012449;28;20192;-72
2024/01/06 06:30:08;;;;;;;1999.90;999.90;;;5.60;99.90;;;;;;5012490;28;20264;-72
2024/01/06 06:32:34;;;;;;;1999.90;999.90;;;5.60;99.90;;;;;;5012085;28;20185;-72
2024/01/06 06:34:59;;;;;;;1999.90;999.90;;;5.50;99.90;;;;;;5012250;28;20419;-73
2024/01/06 06:37:25;;;;;;;1999.90;999.90;;;5.50;99.90;;;;;;5012405;28;20179;-72
2024/01/06 06:39:50;;;;;;;1999.90;999.90;;;5.40;99.90;;;;;;5012379;28;20707;-72
2024/01/06 06:42:16;;;;;;;1999.90;999.90;;;5.40;99.90;;;;;;5012022;28;20220;-72
2024/01/06 06:44:41;;;;;;;1999.90;999.90;;;5.40;99.90;;;;;;5012186;28;20197;-72
2024/01/06 06:47:07;;;;;;;1999.90;999.90;;;5.40;99.90;;;;;;5012257;28;20172;-72
2024/01/06 06:49:33;;;;;;;1999.90;999.90;;;5.30;99.90;;;;;;5012236;28;20176;-72
2024/01/06 06:51:58;;;;;;;1999.90;999.90;;;5.30;99.90;;;;;;5012096;28;20181;-72
2024/01/06 06:54:24;;;;;;;1999.90;999.90;;;5.20;99.90;;;;;;5011878;28;20172;-72
2024/01/06 06:56:50;;;;;;;1999.90;999.90;;;5.20;99.90;;;;;;5012207;28;20531;-72
2024/01/06 06:59:15;;;;;;;1999.90;999.90;;;5.20;99.90;;;;;;5012472;28;20260;-72
2024/01/06 07:01:41;;;;;;;1999.90;999.90;;;;;;;;;;5012178;28;20173;-72
2024/01/06 07:04:07;;;;;;;1999.90;999.90;;;5.10;99.90;;;;;;5011775;28;20618;-72
2024/01/06 07:06:33;;;;;;;1999.90;999.90;;;5.10;99.90;;;;;;5012014;28;20444;-72
2024/01/06 07:08:58;;;;;;;1999.90;999.90;;;5.10;99.90;;;;;;5012008;28;20173;-73
2024/01/06 07:11:24;;;;;;;1999.90;999.90;;;5.10;99.90;;;;;;5012066;28;20220;-73
2024/01/06 07:13:50;;;;;;;1999.90;999.90;;;5.00;99.90;;;;;;5011733;28;20181;-72
2024/01/06 07:16:16;;;;;;;1999.90;999.90;;;5.00;99.90;;;;;;5011932;28;20161;-72
2024/01/06 07:18:41;;;;;;;1999.90;999.90;;;5.00;99.90;;;;;;5011959;28;20441;-72
2024/01/06 07:21:07;;;;;;;1999.90;999.90;;;4.90;99.90;;;;;;5012027;28;20230;-72
2024/01/06 07:23:33;;;;;;;1999.90;999.90;;;4.90;99.90;;;;;;5011482;28;20622;-72
2024/01/06 07:25:58;;;;;;;1999.90;999.90;;;5.00;99.90;;;;;;5011738;28;20455;-72
2024/01/06 07:28:24;;;;;;;1999.90;999.90;;;5.00;99.90;;;;;;5012029;28;20182;-72
2024/01/06 07:30:50;;;;;;;1999.90;999.90;;;4.90;99.90;;;;;;5011896;28;20172;-72
2024/01/06 07:33:15;;;;;;;1999.90;999.90;;;5.00;99.90;;;;;;5011505;28;20182;-72
2024/01/06 07:35:44;;;;;;;1999.90;999.90;;;4.90;99.90;;;;;;5011724;28;20192;-71
2024/01/06 07:38:10;;;;;;;1999.90;999.90;;;4.90;99.90;;;;;;5011731;28;20609;-72
2024/01/06 07:40:36;;;;;;;1999.90;999.90;;;4.90;99.90;;;;;;5012013;28;20430;-72
2024/01/06 07:43:02;;;;;;;1999.90;999.90;;;4.90;99.90;;;;;;5011402;28;20220;-72
2024/01/06 07:45:27;;;;;;;1999.90;999.90;;;4.90;99.90;;;;;;5011615;28;20561;-72
2024/01/06 07:47:53;;;;;;;1999.90;999.90;;;4.90;99.90;;;;;;5011682;28;20169;-72
2024/01/06 07:50:19;;;;;;;1999.90;999.90;;;4.80;99.90;;;;;;5011660;28;20209;-74
2024/01/06 07:52:44;;;;;;;1999.90;999.90;;;4.80;99.90;;;;;;5011315;28;20569;-74
2024/01/06 07:55:10;;;;;;;1999.90;999.90;;;4.80;99.90;;;;;;5011621;28;20185;-72
2024/01/06 07:57:35;;;;;;;1999.90;999.90;;;4.80;99.90;;;;;;5011672;28;20181;-74
2024/01/06 08:00:01;;;;;;;1999.90;999.90;;;4.70;99.90;;;;;;5014550;28;20180;-74
2024/01/06 08:02:27;;;;;;;1999.90;999.90;;;4.80;99.90;;;;;;5014884;28;20235;-74
2024/01/06 08:04:53;;;;;;;1999.90;999.90;;;4.70;99.90;;;;;;5015026;28;20717;-74
2024/01/06 08:07:19;;;;;;;1999.90;999.90;;;4.80;99.90;;;;;;5015000;28;20644;-74
2024/01/06 08:09:45;;;;;;;1999.90;999.90;;;4.70;99.90;;;;;;5015275;28;20411;-74
2024/01/06 08:12:10;;;;;;;1999.90;999.90;;;4.70;99.90;;;;;;5014875;28;20185;-74
2024/01/06 08:14:36;;;;;;;1999.90;999.90;;;4.70;99.90;;;;;;5014692;28;20264;-74
2024/01/06 08:17:01;;;;;;;1999.90;999.90;;;4.70;99.90;;;;;;5014856;28;20204;-74
2024/01/06 08:19:29;;;;;;;1999.90;999.90;;;4.70;99.90;;;;;;5014880;28;20169;-75
2024/01/06 08:21:55;;;;;;;1999.90;999.90;;;4.70;99.90;;;;;;5014503;28;20601;-75
2024/01/06 08:24:21;;;;;;;1999.90;999.90;;;4.70;99.90;;;;;;5014404;28;20462;-74
2024/01/06 08:26:47;;;;;;;1999.90;999.90;;;4.70;99.90;;;;;;5014674;28;20181;-74
2024/01/06 08:29:14;;;;;;;1999.90;999.90;;;4.70;99.90;;;;;;5014749;28;20228;-74
2024/01/06 08:31:40;;;;;;;1999.90;999.90;;;;;;;;;;5014511;28;20416;-74
2024/01/06 08:34:07;;;;;;;1999.90;999.90;;;4.70;99.90;;;;;;5014278;28;20655;-75
2024/01/06 08:36:33;;;;;;;1999.90;999.90;;;4.40;99.90;;;;;;5014405;28;20922;-75
2024/01/06 08:38:59;;;;;;;1999.90;999.90;;;;;;;;;;5014527;28;20408;-75
2024/01/06 08:41:25;;;;;;;1999.90;999.90;;;4.70;99.90;;;;;;5014296;28;20173;-75
2024/01/06 08:43:50;;;;;;;1999.90;999.90;;;4.80;99.90;;;;;;5013986;28;20439;-75
2024/01/06 08:46:17;;;;;;;1999.90;999.90;;;4.80;99.90;;;;;;5014225;28;20165;-75
2024/01/06 08:48:43;;;;;;;1999.90;999.90;;;;;;;;;;5014398;28;20252;-75
2024/01/06 08:51:09;;;;;;;1999.90;999.90;;;;;;;;;;5014140;28;20470;-75
2024/01/06 08:53:34;;;;;;;1999.90;999.90;;;5.00;99.90;;;;;;5013801;28;20830;-75
2024/01/06 08:56:00;;;;;;;1999.90;999.90;;;;;;;;;;5012836;28;20450;-75
2024/01/06 08:58:27;;;;;;;1999.90;999.90;;;;;;;;;;5013072;28;20169;-77
2024/01/06 09:00:53;;;;;;;1999.90;999.90;;;5.10;99.90;;;;;;5012144;28;20417;-75
2024/01/06 09:03:24;;;;;;;1999.90;999.90;;;4.90;99.90;;;;;;5012937;28;20430;-74
2024/01/06 09:05:52;;;;;;;1999.90;999.90;;;4.90;99.90;;;;;;5013644;28;20533;-74
2024/01/06 09:08:18;;;;;;;1999.90;999.90;;;4.90;99.90;;;;;;5013241;28;20482;-73
2024/01/06 09:10:43;;;;;;;1999.90;999.90;;;5.10;99.90;;;;;;5011398;28;20463;-73
2024/01/06 09:13:10;;;;;;;1999.90;999.90;;;6.60;99.90;;;;;;5012432;28;20189;-73
2024/01/06 09:15:35;;;;;;;1999.90;999.90;;;4.90;99.90;;;;;;5013424;28;20188;-73
2024/01/06 09:18:02;;;;;;;1999.90;999.90;;;4.90;99.90;;;;;;5013491;28;20415;-73
2024/01/06 09:20:28;;;;;;;1999.90;999.90;;;4.90;99.90;;;;;;5011912;28;20216;-74
2024/01/06 09:22:53;;;;;;;1999.90;999.90;;;4.90;99.90;;;;;;5011886;28;20848;-74
2024/01/06 09:25:19;;;;;;;1999.90;999.90;;;5.00;99.90;;;;;;5009878;28;20676;-73
2024/01/06 09:27:45;;;;;;;1999.90;999.90;;;5.10;99.90;;;;;;5013147;28;20661;-74
2024/01/06 09:30:11;;;;;;;1999.90;999.90;;;5.20;99.90;;;;;;5013125;28;20284;-75
2024/01/06 09:32:36;;;;;;;1999.90;999.90;;;5.10;99.90;;;;;;5011511;28;20196;-74
2024/01/06 09:35:03;;;;;;;1999.90;999.90;;;5.20;99.90;;;;;;5012516;28;20419;-74
2024/01/06 09:37:29;;;;;;;1999.90;999.90;;;5.20;99.90;;;;;;5012651;28;20185;-75
2024/01/06 09:39:54;;;;;;;1999.90;999.90;;;5.30;99.90;;;;;;5012526;28;20424;-73
2024/01/06 09:42:20;;;;;;;1999.90;999.90;;;5.40;99.90;;;;;;5012262;28;20192;-72
2024/01/06 09:44:46;;;;;;;1999.90;999.90;;;5.40;99.90;;;;;;5012610;28;20698;-72
2024/01/06 09:47:12;;;;;;;1999.90;999.90;;;5.40;99.90;;;;;;5012256;28;20495;-74
2024/01/06 09:49:42;;;;;;;1999.90;999.90;;;5.40;99.90;;;;;;5012598;28;21045;-74
2024/01/06 09:52:15;;;;;;;1999.90;999.90;;;5.40;99.90;;;;;;5012687;28;20460;-74
2024/01/06 09:54:46;;;;;;;1999.90;999.90;;;5.30;99.90;;;;;;5012100;28;20412;-75
2024/01/06 09:57:12;;;;;;;1999.90;999.90;;;5.30;99.90;;;;;;5012552;28;20423;-74
2024/01/06 09:59:38;;;;;;;1999.90;999.90;;;;;;;;;;5012632;28;20408;-74
2024/01/06 10:02:05;;;;;;;1999.90;999.90;;;5.20;99.90;;;;;;5012097;28;20420;-74
2024/01/06 10:04:30;;;;;;;1999.90;999.90;;;5.10;99.90;;;;;;5011689;28;20459;-74
2024/01/06 10:06:56;;;;;;;1999.90;999.90;;;5.10;99.90;;;;;;5012502;28;20404;-74
2024/01/06 10:09:28;;;;;;;1999.90;999.90;;;5.10;99.90;;;;;;5012115;28;20263;-74
2024/01/06 10:11:56;;;;;;;1999.90;999.90;;;5.10;99.90;;;;;;5012233;28;20173;-74
2024/01/06 10:14:24;;;;;;;1999.90;999.90;;;5.10;99.90;;;;;;5011526;28;20825;-74
2024/01/06 10:16:51;;;;;;;1999.90;999.90;;;5.10;99.90;;;;;;5011739;28;20440;-74
2024/01/06 10:19:17;;;;;;;1999.90;999.90;;;;;;;;;;5012351;28;20779;-74
2024/01/06 10:21:43;;;;;;;1999.90;999.90;;;5.10;99.90;;;;;;5011860;28;20404;-74
2024/01/06 10:24:09;;;;;;;1999.90;999.90;;;5.10;99.90;;;;;;5011131;28;20412;-75
2024/01/06 10:26:35;;;;;;;1999.90;999.90;;;5.10;99.90;;;;;;5012098;28;20458;-74
2024/01/06 10:29:01;;;;;;;1999.90;999.90;;;;;;;;;;5012058;28;20628;-74
2024/01/06 10:31:27;;;;;;;1999.90;999.90;;;5.10;99.90;;;;;;5011639;28;20248;-74
2024/01/06 10:33:53;;;;;;;1999.90;999.90;;;5.10;99.90;;;;;;5011283;28;20943;-73
2024/01/06 10:36:19;;;;;;;1999.90;999.90;;;5.10;99.90;;;;;;5011387;28;20415;-70
2024/01/06 10:38:45;;;;;;;1999.90;999.90;;;5.10;99.90;;;;;;5008559;28;20416;-73
2024/01/06 10:41:11;;;;;;;1999.90;999.90;;;5.00;99.90;;;;;;5011228;28;20415;-74
2024/01/06 10:43:41;;;;;;;1999.90;999.90;;;;;;;;;;5010899;28;20272;-75
2024/01/06 10:46:10;;;;;;;1999.90;999.90;;;4.90;99.90;;;;;;5010959;28;20463;-74
2024/01/06 10:48:38;;;;;;;1999.90;999.90;;;4.90;99.90;;;;;;5011597;28;20396;-74
2024/01/06 10:51:07;;;;;;;1999.90;999.90;;;4.90;99.90;;;;;;5011789;28;20419;-74
2024/01/06 10:53:35;;;;;;;1999.90;999.90;;;4.90;99.90;;;;;;5010456;28;20779;-75
2024/01/06 10:56:01;;;;;;;1999.90;999.90;;;4.90;99.90;;;;;;5011331;28;20408;-74
2024/01/06 10:58:28;;;;;;;1999.90;999.90;;;5.20;99.90;;;;;;5011580;28;20412;-74
2024/01/06 11:00:57;;;;;;;1999.90;999.90;;;5.00;99.90;;;;;;5011206;28;20712;-75
2024/01/06 11:03:23;;;;;;;1999.90;999.90;;;5.50;99.90;;;;;;5010921;28;20437;-74
2024/01/06 11:05:50;;;;;;;1999.90;999.90;;;5.10;99.90;;;;;;5011348;28;20455;-74
2024/01/06 11:08:17;;;;;;;1999.90;999.90;;;5.10;99.90;;;;;;5010911;28;20502;-74
2024/01/06 11:10:44;;;;;;;1999.90;999.90;;;5.20;99.90;;;;;;5011364;28;20759;-75
2024/01/06 11:13:12;;;;;;;1999.90;999.90;;;5.30;99.90;;;;;;5010597;28;20435;-75
2024/01/06 11:15:42;;;;;;;1999.90;999.90;;;5.30;99.90;;;;;;5010601;28;20412;-75
2024/01/06 11:18:08;;;;;;;1999.90;999.90;;;5.30;99.90;;;;;;5010726;28;20411;-75
2024/01/06 11:20:33;;;;;;;1999.90;999.90;;;5.40;99.90;;;;;;5010911;28;20434;-74
2024/01/06 11:23:20;;;;;;;1999.90;999.90;;;5.30;99.90;;;;;;5010050;28;20228;-74
2024/01/06 11:25:46;;;;;;;1999.90;999.90;;;5.20;99.90;;;;;;5011135;28;20197;-74
2024/01/06 11:28:12;;;;;;;1999.90;999.90;;;5.20;99.90;;;;;;5011234;28;20404;-75
2024/01/06 11:30:40;;;;;;;1999.90;999.90;;;5.10;99.90;;;;;;5010857;28;20430;-74
2024/01/06 11:33:05;;;;;;;1999.90;999.90;;;5.00;99.90;;;;;;5011041;28;20228;-74
2024/01/06 11:35:31;;;;;;;1999.90;999.90;;;5.00;99.90;;;;;;5014895;28;20443;-73
2024/01/06 11:38:00;;;;;;;1999.90;999.90;;;5.00;99.90;;;;;;5014534;28;20173;-74
2024/01/06 11:40:32;;;;;;;1999.90;999.90;;;5.10;99.90;;;;;;5014928;28;20235;-74
2024/01/06 11:43:07;;;;;;;1999.90;999.90;;;5.10;99.90;;;;;;5014704;28;20431;-74
2024/01/06 11:45:34;;;;;;;1999.90;999.90;;;5.00;99.90;;;;;;5014179;28;20439;-74
2024/01/06 11:48:03;;;;;;;1999.90;999.90;;;5.00;99.90;;;;;;5014626;28;20404;-74
2024/01/06 11:50:32;;;;;;;1999.90;999.90;;;5.00;99.90;;;;;;5014832;28;20404;-75
2024/01/06 11:52:58;;;;;;;1999.90;999.90;;;5.00;99.90;;;;;;5013734;28;20432;-73
2024/01/06 11:55:24;;;;;;;1999.90;999.90;;;5.00;99.90;;;;;;5014622;28;20420;-74
2024/01/06 11:57:50;;;;;;;1999.90;999.90;;;5.60;99.90;;;;;;5014673;28;20408;-73
2024/01/06 12:00:16;;;;;;;1999.90;999.90;;;4.70;99.90;;;;;;5014187;28;20416;-73
2024/01/06 12:02:42;;;;;;;1999.90;999.90;;;4.70;99.90;;;;;;5014032;28;20459;-74
2024/01/06 12:05:17;;;;;;;1999.90;999.90;;;4.60;99.90;;;;;;5014392;28;20495;-74